MAPA DE AEROPUERTO

INFORMACIÓN METAR y TAF

METAR FOR LEMD
ADDS - METARS form results

(0542 UTC 22 June 2021)
Data provider http://aviationweather.gov/metar/data/
 
METAR text: LEMD 220530Z 36002KT CAVOK 15/10 Q1015 NOSIG
Conditions at: LEMD (MADRID/BARAJAS , ES) observed 0530 UTC 22 June 2021
Temperature: 15.0°C (59°F)
Dewpoint: 10.0°C (50°F) [RH = 72%]
Pressure (altimeter): 29.97 inches Hg (1015.0 mb)
Winds: from the N (360 degrees) at 2 MPH (2 knots; 1.0 m/s)
Visibility: 6 or more miles (10+ km)
Ceiling: ceiling and visibility are OK
Clouds: unknown
Weather: no significant weather observed at this time

METAR text: LEMD 220500Z 36001KT CAVOK 15/10 Q1015 NOSIG
Conditions at: LEMD (MADRID/BARAJAS , ES) observed 0500 UTC 22 June 2021
Temperature: 15.0°C (59°F)
Dewpoint: 10.0°C (50°F) [RH = 72%]
Pressure (altimeter): 29.97 inches Hg (1015.0 mb)
Winds: from the N (360 degrees) at 1 MPH (1 knots; 0.5 m/s)
Visibility: 6 or more miles (10+ km)
Ceiling: ceiling and visibility are OK
Clouds: unknown
Weather: no significant weather observed at this time

Forecast for: LEMD (MADRID/BARAJAS , ES)
Text: TAF LEMD 220500Z 2206/2312 VRB05KT 9999 FEW040 TX26/2215Z TN15/2305Z
Forecast period: 0600 UTC 22 June 2021 to 0400 UTC 23 June 2021
Forecast type: FROM: standard forecast or significant change
Winds: variable direction winds at 6 MPH (5 knots; 2.6 m/s)
Visibility: 6 or more miles (10+ km)
Ceiling: at least 12,000 feet AGL
Clouds: few clouds at 4000 feet AGL
Weather: no significant weather forecast for this period
Text: PROB30
Forecast period: 1600 to 1900 UTC 22 June 2021
Forecast type: TEMPORARY: The following changes expected for less than half the time period
Winds: from the WSW (240 degrees) at 12 MPH (10 knots; 5.1 m/s)
Visibility: missing
Ceiling: unknown
Clouds: missing
Weather: no significant weather forecast for this period
Text: TEMPO 2216/2219 24010KT
Forecast period: 1400 to 2100 UTC 22 June 2021
Forecast type: TEMPORARY: The following changes expected for less than half the time period
Visibility: 1.86 miles (2.99 km)
Ceiling: at least 12,000 feet AGL
Clouds: scattered clouds at 4000 feet AGL
Weather: SHRA  (rain showers)
Text: PROB40
Forecast period: 1700 to 2200 UTC 22 June 2021
Forecast type: TEMPORARY: The following changes expected for less than half the time period
Winds: variable direction winds at 17 MPH (15 knots; 7.7 m/s)
gusting to 29 MPH (25 knots; 12.9 m/s)
Visibility: 1.24 miles (2.00 km)
Ceiling: at least 12,000 feet AGL
Clouds: scattered clouds at 4000 feet AGL
Weather: TSRA  (rain associated with thunderstorm(s))
Text: TEMPO 2214/2221 3000 SHRA SCT040TCU
Forecast period: 0400 to 1200 UTC 23 June 2021
Forecast type: BECOMING: Conditions expected to become as follows by 0600 UTC 23 June 2021
Winds: from the NNE (20 degrees) at 12 MPH (10 knots; 5.1 m/s)
Visibility: 6 or more miles (10+ km)
Ceiling: at least 12,000 feet AGL
Clouds: few clouds at 4000 feet AGL
Weather: no significant weather forecast for this period